createdAt,value
2018-05-03T00:00:31.443Z,99.90
2018-05-03T00:02:59.021Z,99.90
2018-05-03T00:05:26.520Z,99.90
2018-05-03T00:07:54.112Z,99.90
2018-05-03T00:10:21.607Z,99.90
2018-05-03T00:12:50.252Z,99.90
2018-05-03T00:15:17.858Z,99.90
2018-05-03T00:17:45.434Z,99.90
2018-05-03T00:20:12.959Z,99.90
2018-05-03T00:22:40.524Z,99.90
2018-05-03T00:25:08.060Z,99.90
2018-05-03T00:27:36.365Z,99.90
2018-05-03T00:30:03.900Z,99.90
2018-05-03T00:32:31.466Z,99.90
2018-05-03T00:34:58.967Z,99.90
2018-05-03T00:37:27.301Z,99.90
2018-05-03T00:39:54.892Z,99.90
2018-05-03T00:42:22.467Z,99.90
2018-05-03T00:44:50.043Z,99.90
2018-05-03T00:47:17.572Z,99.90
2018-05-03T00:49:45.133Z,99.90
2018-05-03T00:52:12.688Z,99.90
2018-05-03T00:54:47.740Z,99.90
2018-05-03T00:57:16.100Z,99.90
2018-05-03T00:59:43.641Z,99.90
2018-05-03T01:02:11.161Z,99.90
2018-05-03T01:04:39.491Z,99.90
2018-05-03T01:07:07.085Z,99.90
2018-05-03T01:09:34.695Z,99.90
2018-05-03T01:12:02.231Z,99.90
2018-05-03T01:14:29.785Z,99.90
2018-05-03T01:16:57.341Z,99.90
2018-05-03T01:19:24.896Z,99.90
2018-05-03T01:21:52.460Z,99.90
2018-05-03T01:24:20.847Z,99.90
2018-05-03T01:26:48.369Z,99.90
2018-05-03T01:29:15.939Z,99.90
2018-05-03T01:31:43.528Z,99.90
2018-05-03T01:34:11.069Z,99.90
2018-05-03T01:36:38.613Z,99.90
2018-05-03T01:39:06.909Z,99.90
2018-05-03T01:41:35.234Z,99.90
2018-05-03T01:44:02.776Z,99.90
2018-05-03T01:46:31.185Z,99.90
2018-05-03T01:48:58.760Z,99.90
2018-05-03T01:51:26.296Z,99.90
2018-05-03T01:53:54.679Z,99.90
2018-05-03T01:56:22.296Z,99.90
2018-05-03T01:58:49.873Z,99.90
2018-05-03T02:01:17.498Z,99.90
2018-05-03T02:03:45.053Z,99.90
2018-05-03T02:06:12.648Z,99.90
2018-05-03T02:08:40.184Z,99.90
2018-05-03T02:11:07.743Z,99.90
2018-05-03T02:13:35.315Z,99.90
2018-05-03T02:16:02.867Z,99.90
2018-05-03T02:18:30.405Z,99.90
2018-05-03T02:20:58.041Z,99.90
2018-05-03T02:23:25.636Z,99.90
2018-05-03T02:25:53.192Z,99.90
2018-05-03T02:28:20.767Z,99.90
2018-05-03T02:30:48.329Z,99.90
2018-05-03T02:33:15.862Z,99.90
2018-05-03T02:35:44.193Z,99.90
2018-05-03T02:38:11.757Z,99.90
2018-05-03T02:40:39.311Z,99.90
2018-05-03T02:43:06.867Z,99.90
2018-05-03T02:45:34.417Z,99.90
2018-05-03T02:48:02.000Z,99.90
2018-05-03T02:50:30.366Z,99.90
2018-05-03T02:52:57.961Z,99.90
2018-05-03T02:55:26.356Z,99.90
2018-05-03T02:58:12.496Z,99.90
2018-05-03T03:00:57.636Z,99.90
2018-05-03T03:07:14.054Z,99.90
2018-05-03T03:13:43.832Z,99.90
2018-05-03T03:16:29.037Z,99.90
2018-05-03T03:19:14.150Z,99.90
2018-05-03T03:22:00.193Z,99.90
2018-05-03T03:24:40.369Z,99.90
2018-05-03T03:27:25.558Z,99.90
2018-05-03T03:30:05.073Z,99.90
2018-05-03T03:32:45.186Z,99.90
2018-05-03T03:38:36.292Z,99.90
2018-05-03T03:41:15.643Z,99.90
2018-05-03T03:43:55.255Z,99.90
2018-05-03T03:46:22.779Z,99.90
2018-05-03T03:48:51.993Z,99.90
2018-05-03T03:51:27.900Z,99.90
2018-05-03T03:53:57.812Z,99.90
2018-05-03T03:56:25.558Z,99.90
2018-05-03T03:58:53.233Z,99.90
2018-05-03T04:01:21.518Z,99.90
2018-05-03T04:03:49.826Z,99.90
2018-05-03T04:06:17.340Z,99.90
2018-05-03T04:08:45.034Z,99.90
2018-05-03T04:11:12.588Z,99.90
2018-05-03T04:13:40.229Z,99.90
2018-05-03T04:16:07.747Z,99.90
2018-05-03T04:18:47.313Z,99.90
2018-05-03T04:21:27.453Z,99.90
2018-05-03T04:24:08.754Z,99.90
2018-05-03T04:26:36.297Z,99.90
2018-05-03T04:29:03.887Z,99.90
2018-05-03T04:31:31.490Z,99.90
2018-05-03T04:33:59.022Z,99.90
2018-05-03T04:36:26.702Z,99.90
2018-05-03T04:38:54.280Z,99.90
2018-05-03T04:41:21.851Z,99.90
2018-05-03T04:43:49.381Z,99.90
2018-05-03T04:46:17.257Z,99.90
2018-05-03T04:48:44.833Z,99.90
2018-05-03T04:51:12.374Z,99.90
2018-05-03T04:53:39.890Z,99.90
2018-05-03T04:56:07.517Z,99.90
2018-05-03T04:58:35.060Z,99.90
2018-05-03T05:01:02.627Z,99.90
2018-05-03T05:03:30.260Z,99.90
2018-05-03T05:05:58.556Z,99.90
2018-05-03T05:08:26.076Z,99.90
2018-05-03T05:10:53.649Z,99.90
2018-05-03T05:13:21.202Z,99.90
2018-05-03T05:15:48.754Z,99.90
2018-05-03T05:18:16.339Z,99.90
2018-05-03T05:20:43.901Z,99.90
2018-05-03T05:23:11.481Z,99.90
2018-05-03T05:25:39.021Z,99.90
2018-05-03T05:28:18.583Z,99.90
2018-05-03T05:30:46.406Z,99.90
2018-05-03T05:33:15.030Z,99.90
2018-05-03T05:35:43.670Z,99.90
2018-05-03T05:38:11.326Z,99.90
2018-05-03T05:40:39.637Z,99.90
2018-05-03T05:43:07.202Z,99.90
2018-05-03T05:45:34.769Z,99.90
2018-05-03T05:48:02.333Z,99.90
2018-05-03T05:50:30.726Z,99.90
2018-05-03T05:52:59.040Z,99.90
2018-05-03T05:55:26.598Z,99.90
2018-05-03T05:57:54.120Z,99.90
2018-05-03T06:00:21.643Z,99.90
2018-05-03T06:02:49.170Z,99.90
2018-05-03T06:05:16.684Z,99.90
2018-05-03T06:07:44.264Z,99.90
2018-05-03T06:10:11.823Z,99.90
2018-05-03T06:12:39.399Z,99.90
2018-05-03T06:15:06.912Z,98.10
2018-05-03T06:17:34.425Z,95.60
2018-05-03T06:20:02.726Z,88.50
2018-05-03T06:22:30.548Z,88.50
2018-05-03T06:24:58.101Z,82.90
2018-05-03T06:27:25.623Z,88.00
2018-05-03T06:29:53.225Z,88.90
2018-05-03T06:32:20.770Z,86.10
2018-05-03T06:34:49.235Z,83.50
2018-05-03T06:37:16.844Z,83.50
2018-05-03T06:39:45.132Z,80.20
2018-05-03T06:42:13.422Z,80.80
2018-05-03T06:44:40.954Z,80.80
2018-05-03T06:47:08.469Z,76.50
2018-05-03T06:49:36.760Z,69.70
2018-05-03T06:52:04.305Z,69.50
2018-05-03T06:54:31.804Z,71.90
2018-05-03T06:57:00.092Z,76.10
2018-05-03T06:59:28.398Z,72.20
2018-05-03T07:01:55.919Z,72.20
2018-05-03T07:04:23.640Z,67.80
2018-05-03T07:06:51.048Z,67.20
2018-05-03T07:09:19.368Z,58.80
2018-05-03T07:11:46.904Z,58.80
2018-05-03T07:14:14.524Z,59.90
2018-05-03T07:16:42.806Z,59.70
2018-05-03T07:19:10.385Z,59.70
2018-05-03T07:21:38.690Z,56.00
2018-05-03T07:24:06.442Z,55.80
2018-05-03T07:26:34.913Z,51.50
2018-05-03T07:29:02.784Z,50.80
2018-05-03T07:31:30.338Z,51.50
2018-05-03T07:33:57.841Z,50.10
2018-05-03T07:36:26.712Z,47.60
2018-05-03T07:38:54.591Z,48.60
2018-05-03T07:41:22.089Z,46.00
2018-05-03T07:43:49.853Z,47.30
2018-05-03T07:46:17.428Z,49.70
2018-05-03T07:48:44.980Z,48.90
2018-05-03T07:51:12.498Z,49.00
2018-05-03T07:53:40.052Z,50.70
2018-05-03T07:56:07.578Z,50.10
2018-05-03T07:58:35.113Z,48.80
2018-05-03T08:01:02.871Z,47.70
2018-05-03T08:03:30.196Z,48.70
2018-05-03T08:05:57.725Z,50.10
2018-05-03T08:08:25.383Z,51.30
2018-05-03T08:10:52.938Z,51.00
2018-05-03T08:13:20.492Z,51.00
2018-05-03T08:15:48.012Z,50.60
2018-05-03T08:18:15.549Z,48.30
2018-05-03T08:20:45.731Z,47.80
2018-05-03T08:23:14.073Z,46.70
2018-05-03T08:25:41.867Z,47.40
2018-05-03T08:28:09.461Z,45.40
2018-05-03T08:30:36.995Z,46.00
2018-05-03T08:33:04.585Z,45.30
2018-05-03T08:35:32.098Z,43.90
2018-05-03T08:38:00.563Z,42.60
2018-05-03T08:40:28.122Z,42.60
2018-05-03T08:42:55.689Z,44.20
2018-05-03T08:45:23.194Z,44.20
2018-05-03T08:47:51.542Z,44.40
2018-05-03T08:50:19.097Z,44.40
2018-05-03T08:52:46.812Z,45.10
2018-05-03T08:55:14.408Z,45.30
2018-05-03T08:57:42.243Z,43.60
2018-05-03T09:00:09.757Z,41.50
2018-05-03T09:02:38.374Z,40.30
2018-05-03T09:05:05.920Z,40.30
2018-05-03T09:07:33.449Z,38.50
2018-05-03T09:10:00.966Z,38.90
2018-05-03T09:12:29.337Z,39.40
2018-05-03T09:14:57.008Z,39.30
2018-05-03T09:17:24.519Z,38.40
2018-05-03T09:19:52.058Z,38.50
2018-05-03T09:22:19.553Z,37.40
2018-05-03T09:24:48.008Z,39.90
2018-05-03T09:27:15.516Z,39.90
2018-05-03T09:29:43.056Z,40.10
2018-05-03T09:32:10.611Z,40.40
2018-05-03T09:34:38.171Z,41.90
2018-05-03T09:37:05.670Z,41.20
2018-05-03T09:39:33.225Z,43.00
2018-05-03T09:42:00.864Z,45.70
2018-05-03T09:44:28.407Z,45.00
2018-05-03T09:46:55.946Z,44.90
2018-05-03T09:49:23.479Z,45.10
2018-05-03T09:51:54.120Z,43.60
2018-05-03T09:54:21.772Z,42.80
2018-05-03T09:56:49.288Z,44.40
2018-05-03T09:59:16.889Z,46.00
2018-05-03T10:01:44.411Z,45.40
2018-05-03T10:04:11.970Z,46.10
2018-05-03T10:06:40.293Z,48.10
2018-05-03T10:09:07.983Z,48.10
2018-05-03T10:11:36.233Z,46.00
2018-05-03T10:14:04.510Z,49.00
2018-05-03T10:16:32.846Z,47.90
2018-05-03T10:19:00.501Z,47.80
2018-05-03T10:21:28.021Z,47.40
2018-05-03T10:23:56.292Z,49.10
2018-05-03T10:26:23.857Z,49.10
2018-05-03T10:28:51.381Z,49.10
2018-05-03T10:31:19.787Z,48.90
2018-05-03T10:33:47.352Z,48.80
2018-05-03T10:36:15.986Z,49.00
2018-05-03T10:38:43.621Z,49.00
2018-05-03T10:41:11.901Z,50.10
2018-05-03T10:43:39.461Z,50.20
2018-05-03T10:46:08.468Z,49.70
2018-05-03T10:48:36.610Z,49.70
2018-05-03T10:51:04.152Z,48.80
2018-05-03T10:53:31.681Z,47.10
2018-05-03T10:55:59.216Z,48.20
2018-05-03T10:58:26.809Z,48.00
2018-05-03T11:00:55.668Z,47.80
2018-05-03T11:03:23.214Z,49.20
2018-05-03T11:05:50.721Z,48.90
2018-05-03T11:08:18.316Z,48.00
2018-05-03T11:10:45.820Z,49.00
2018-05-03T11:13:13.362Z,48.10
2018-05-03T11:15:41.086Z,50.70
2018-05-03T11:18:08.633Z,51.00
2018-05-03T11:20:36.247Z,49.90
2018-05-03T11:23:03.790Z,48.30
2018-05-03T11:25:31.296Z,49.20
2018-05-03T11:27:58.965Z,48.00
2018-05-03T11:30:26.460Z,47.20
2018-05-03T11:32:53.992Z,49.10
2018-05-03T11:35:22.474Z,48.50
2018-05-03T11:37:50.183Z,48.50
2018-05-03T11:40:17.997Z,50.40
2018-05-03T11:42:45.590Z,51.50
2018-05-03T11:45:13.142Z,50.30
2018-05-03T11:47:40.644Z,49.60
2018-05-03T11:50:08.928Z,49.80
2018-05-03T11:52:36.531Z,49.30
2018-05-03T11:55:04.269Z,47.30
2018-05-03T11:57:31.778Z,49.40
2018-05-03T11:59:59.905Z,49.40
2018-05-03T12:02:28.923Z,47.20
2018-05-03T12:04:56.481Z,48.10
2018-05-03T12:07:29.178Z,49.70
2018-05-03T12:09:56.746Z,48.90
2018-05-03T12:12:24.362Z,49.60
2018-05-03T12:14:52.674Z,49.00
2018-05-03T12:17:20.232Z,49.00
2018-05-03T12:19:48.540Z,48.50
2018-05-03T12:22:17.333Z,48.50
2018-05-03T12:24:44.885Z,48.30
2018-05-03T12:27:13.196Z,50.40
2018-05-03T12:29:40.799Z,50.30
2018-05-03T12:32:08.335Z,50.70
2018-05-03T12:34:35.878Z,48.30
2018-05-03T12:37:03.474Z,48.50
2018-05-03T12:39:31.817Z,48.70
2018-05-03T12:41:59.329Z,48.70
2018-05-03T12:44:27.604Z,51.50
2018-05-03T12:46:55.245Z,51.50
2018-05-03T12:49:22.740Z,48.70
2018-05-03T12:51:50.417Z,49.20
2018-05-03T12:54:18.022Z,49.30
2018-05-03T12:56:45.540Z,49.00
2018-05-03T12:59:13.044Z,49.70
2018-05-03T13:01:41.398Z,49.60
2018-05-03T13:04:08.919Z,49.60
2018-05-03T13:06:37.238Z,49.50
2018-05-03T13:09:04.844Z,49.50
2018-05-03T13:11:32.368Z,48.90
2018-05-03T13:13:59.935Z,47.70
2018-05-03T13:16:27.483Z,48.30
2018-05-03T13:18:55.105Z,47.20
2018-05-03T13:21:22.667Z,48.60
2018-05-03T13:23:50.164Z,49.20
2018-05-03T13:26:17.684Z,48.30
2018-05-03T13:28:46.022Z,47.80
2018-05-03T13:31:13.778Z,47.80
2018-05-03T13:33:41.272Z,48.30
2018-05-03T13:36:08.940Z,48.80
2018-05-03T13:38:36.463Z,48.40
2018-05-03T13:41:04.759Z,46.80
2018-05-03T13:43:33.284Z,46.20
2018-05-03T13:46:00.810Z,46.20
2018-05-03T13:48:29.112Z,46.00
2018-05-03T13:50:57.552Z,45.10
2018-05-03T13:53:25.509Z,45.10
2018-05-03T13:55:53.783Z,47.30
2018-05-03T13:58:21.329Z,47.20
2018-05-03T14:00:48.875Z,46.20
2018-05-03T14:03:16.791Z,45.40
2018-05-03T14:05:45.432Z,44.80
2018-05-03T14:08:13.021Z,44.70
2018-05-03T14:10:40.572Z,46.70
2018-05-03T14:13:08.232Z,46.80
2018-05-03T14:15:35.798Z,46.90
2018-05-03T14:18:03.424Z,49.10
2018-05-03T14:20:37.613Z,49.00
2018-05-03T14:23:05.213Z,49.10
2018-05-03T14:25:32.867Z,48.90
2018-05-03T14:28:00.462Z,49.30
2018-05-03T14:30:28.009Z,48.70
2018-05-03T14:32:55.561Z,48.80
2018-05-03T14:35:23.309Z,48.70
2018-05-03T14:37:50.855Z,50.10
2018-05-03T14:40:18.898Z,50.10
2018-05-03T14:42:54.440Z,50.50
2018-05-03T14:45:22.790Z,51.90
2018-05-03T14:47:50.308Z,52.60
2018-05-03T14:50:18.651Z,51.30
2018-05-03T14:52:46.183Z,51.20
2018-05-03T14:55:13.832Z,51.00
2018-05-03T14:57:42.193Z,50.20
2018-05-03T15:00:10.052Z,50.00
2018-05-03T15:05:17.429Z,51.50
2018-05-03T15:07:44.953Z,51.40
2018-05-03T15:10:12.685Z,51.60
2018-05-03T15:12:42.019Z,52.40
2018-05-03T15:15:09.692Z,52.30
2018-05-03T15:17:37.471Z,50.40
2018-05-03T15:20:05.102Z,51.90
2018-05-03T15:22:32.747Z,51.90
2018-05-03T15:25:00.562Z,52.10
2018-05-03T15:27:28.086Z,51.80
2018-05-03T15:29:57.149Z,52.00
2018-05-03T15:32:25.541Z,52.50
2018-05-03T15:34:54.594Z,52.50
2018-05-03T15:37:35.228Z,53.60
2018-05-03T15:40:02.734Z,53.60
2018-05-03T15:42:34.458Z,54.30
2018-05-03T15:45:02.001Z,53.70
2018-05-03T15:47:29.721Z,53.80
2018-05-03T15:49:58.246Z,55.30
2018-05-03T15:52:26.521Z,55.30
2018-05-03T15:54:55.141Z,54.80
2018-05-03T15:57:23.140Z,54.80
2018-05-03T15:59:50.740Z,54.70
2018-05-03T16:02:19.200Z,54.00
2018-05-03T16:04:59.545Z,54.60
2018-05-03T16:07:27.300Z,53.40
2018-05-03T16:09:58.737Z,54.60
2018-05-03T16:12:29.674Z,54.60
2018-05-03T16:14:58.295Z,52.90
2018-05-03T16:17:25.971Z,52.70
2018-05-03T16:19:53.680Z,52.10
2018-05-03T16:22:21.254Z,53.10
2018-05-03T16:24:48.857Z,54.30
2018-05-03T16:27:17.085Z,53.70
2018-05-03T16:29:44.583Z,53.00
2018-05-03T16:32:12.122Z,54.00
2018-05-03T16:34:39.717Z,53.90
2018-05-03T16:37:07.976Z,53.80
2018-05-03T16:39:35.530Z,53.70
2018-05-03T16:42:03.048Z,54.00
2018-05-03T16:44:40.850Z,55.00
2018-05-03T16:47:09.250Z,54.30
2018-05-03T16:49:37.535Z,54.20
2018-05-03T16:52:06.662Z,53.70
2018-05-03T16:54:34.253Z,53.60
2018-05-03T16:57:01.804Z,52.70
2018-05-03T16:59:30.100Z,53.30
2018-05-03T17:01:57.629Z,53.30
2018-05-03T17:04:25.176Z,53.50
2018-05-03T17:06:52.714Z,53.00
2018-05-03T17:09:21.195Z,53.70
2018-05-03T17:11:49.481Z,55.20
2018-05-03T17:14:18.589Z,54.70
2018-05-03T17:16:46.936Z,54.00
2018-05-03T17:19:15.332Z,54.00
2018-05-03T17:21:42.927Z,55.20
2018-05-03T17:24:10.601Z,54.90
2018-05-03T17:26:39.673Z,56.40
2018-05-03T17:29:07.261Z,55.20
2018-05-03T17:31:34.791Z,56.20
2018-05-03T17:34:02.343Z,56.00
2018-05-03T17:36:30.141Z,56.80
2018-05-03T17:38:57.658Z,57.90
2018-05-03T17:41:25.179Z,57.20
2018-05-03T17:43:52.710Z,58.70
2018-05-03T17:46:20.248Z,58.90
2018-05-03T17:48:47.772Z,58.70
2018-05-03T17:51:16.054Z,59.20
2018-05-03T17:53:43.670Z,59.20
2018-05-03T17:56:11.209Z,59.80
2018-05-03T17:58:39.520Z,61.10
2018-05-03T18:01:07.117Z,61.10
2018-05-03T18:03:34.682Z,61.80
2018-05-03T18:06:02.641Z,62.10
2018-05-03T18:08:30.280Z,63.00
2018-05-03T18:10:57.790Z,64.80
2018-05-03T18:13:25.460Z,65.80
2018-05-03T18:15:53.020Z,68.00
2018-05-03T18:18:21.357Z,68.00
2018-05-03T18:20:49.295Z,68.00
2018-05-03T18:23:16.813Z,69.60
2018-05-03T18:25:45.986Z,69.30
2018-05-03T18:28:13.583Z,70.70
2018-05-03T18:30:41.414Z,71.80
2018-05-03T18:33:08.916Z,73.30
2018-05-03T18:35:36.578Z,75.20
2018-05-03T18:38:05.668Z,76.90
2018-05-03T18:40:34.300Z,81.90
2018-05-03T18:43:01.953Z,81.90
2018-05-03T18:45:30.269Z,87.50
2018-05-03T18:47:58.537Z,87.50
2018-05-03T18:50:26.057Z,90.10
2018-05-03T18:52:53.592Z,92.30
2018-05-03T18:55:21.142Z,93.70
2018-05-03T18:57:49.475Z,98.60
2018-05-03T19:00:17.471Z,98.60
2018-05-03T19:02:45.484Z,99.90
2018-05-03T19:05:13.877Z,99.90
2018-05-03T19:07:41.462Z,99.90
2018-05-03T19:10:10.133Z,99.90
2018-05-03T19:12:37.664Z,99.90
2018-05-03T19:15:06.046Z,99.90
2018-05-03T19:17:33.555Z,99.90
2018-05-03T19:20:01.114Z,99.90
2018-05-03T19:22:28.637Z,99.90
2018-05-03T19:24:56.215Z,99.90
2018-05-03T19:27:23.780Z,99.90
2018-05-03T19:29:52.107Z,99.90
2018-05-03T19:32:19.610Z,99.90
2018-05-03T19:34:47.133Z,99.90
2018-05-03T19:37:14.650Z,99.90
2018-05-03T19:39:42.220Z,99.90
2018-05-03T19:42:09.747Z,99.90
2018-05-03T19:44:37.272Z,99.90
2018-05-03T19:47:06.313Z,99.90
2018-05-03T19:49:33.845Z,99.90
2018-05-03T19:52:01.400Z,99.90
2018-05-03T19:54:28.950Z,99.90
2018-05-03T19:56:56.489Z,99.90
2018-05-03T19:59:24.799Z,99.90
2018-05-03T20:01:52.437Z,99.90
2018-05-03T20:04:19.973Z,99.90
2018-05-03T20:06:47.517Z,99.90
2018-05-03T20:09:15.042Z,99.90
2018-05-03T20:11:43.353Z,99.90
2018-05-03T20:14:11.676Z,99.90
2018-05-03T20:16:39.202Z,99.90
2018-05-03T20:19:06.809Z,99.90
2018-05-03T20:21:34.325Z,99.90
2018-05-03T20:24:01.858Z,99.90
2018-05-03T20:26:29.397Z,99.90
2018-05-03T20:28:57.689Z,99.90
2018-05-03T20:31:26.006Z,99.90
2018-05-03T20:33:53.509Z,99.90
2018-05-03T20:36:21.077Z,99.90
2018-05-03T20:38:48.590Z,99.90
2018-05-03T20:41:16.923Z,99.90
2018-05-03T20:43:44.473Z,99.90
2018-05-03T20:46:12.137Z,99.90
2018-05-03T20:48:39.579Z,99.90
2018-05-03T20:51:07.146Z,99.90
2018-05-03T20:53:34.723Z,99.90
2018-05-03T20:56:02.304Z,99.90
2018-05-03T20:58:29.910Z,99.90
2018-05-03T21:00:57.506Z,99.90
2018-05-03T21:03:25.094Z,99.90
2018-05-03T21:05:52.656Z,99.90
2018-05-03T21:08:20.173Z,99.90
2018-05-03T21:10:47.687Z,99.90
2018-05-03T21:13:15.242Z,99.90
2018-05-03T21:15:42.859Z,99.90
2018-05-03T21:18:10.434Z,99.90
2018-05-03T21:20:37.962Z,99.90
2018-05-03T21:23:05.544Z,99.90
2018-05-03T21:25:33.060Z,99.90
2018-05-03T21:28:00.589Z,99.90
2018-05-03T21:30:28.145Z,99.90
2018-05-03T21:32:55.820Z,99.90
2018-05-03T21:35:23.391Z,99.90
2018-05-03T21:37:51.026Z,99.90
2018-05-03T21:40:19.335Z,99.90
2018-05-03T21:42:47.868Z,99.90
2018-05-03T21:45:15.409Z,99.90
2018-05-03T21:47:43.724Z,99.90
2018-05-03T21:50:11.274Z,99.90
2018-05-03T21:52:39.611Z,99.90
2018-05-03T21:55:07.145Z,99.90
2018-05-03T21:57:34.701Z,99.90
2018-05-03T22:00:02.996Z,99.90
2018-05-03T22:02:31.304Z,99.90
2018-05-03T22:04:58.847Z,99.90
2018-05-03T22:07:26.419Z,99.90
2018-05-03T22:09:54.718Z,99.90
2018-05-03T22:12:23.036Z,99.90
2018-05-03T22:14:50.572Z,99.90
2018-05-03T22:17:18.884Z,99.90
2018-05-03T22:19:46.424Z,99.90
2018-05-03T22:22:13.965Z,99.90
2018-05-03T22:24:41.502Z,99.90
2018-05-03T22:27:09.045Z,99.90
2018-05-03T22:29:36.564Z,99.90
2018-05-03T22:32:04.136Z,99.90
2018-05-03T22:34:31.671Z,99.90
2018-05-03T22:36:59.987Z,99.90
2018-05-03T22:39:27.502Z,99.90
2018-05-03T22:41:55.861Z,99.90
2018-05-03T22:44:23.412Z,99.90
2018-05-03T22:46:50.957Z,99.90
2018-05-03T22:49:18.483Z,99.90
2018-05-03T22:51:45.998Z,99.90
2018-05-03T22:54:13.574Z,99.90
2018-05-03T22:56:41.870Z,99.90
2018-05-03T22:59:10.172Z,99.90
2018-05-03T23:01:37.700Z,99.90
2018-05-03T23:04:05.255Z,99.90
2018-05-03T23:06:32.815Z,99.90
2018-05-03T23:09:00.434Z,99.90
2018-05-03T23:11:28.001Z,99.90
2018-05-03T23:13:55.575Z,99.90
2018-05-03T23:16:23.112Z,99.90
2018-05-03T23:18:50.707Z,99.90
2018-05-03T23:21:18.251Z,99.90
2018-05-03T23:23:45.857Z,99.90
2018-05-03T23:26:13.403Z,99.90
2018-05-03T23:28:40.947Z,99.90
2018-05-03T23:31:08.557Z,99.90
2018-05-03T23:33:36.158Z,99.90
2018-05-03T23:36:03.693Z,99.90
2018-05-03T23:38:31.258Z,99.90
2018-05-03T23:40:58.784Z,99.90
2018-05-03T23:43:27.099Z,99.90
2018-05-03T23:45:54.662Z,99.90
2018-05-03T23:48:22.229Z,99.90
2018-05-03T23:50:50.545Z,99.90
2018-05-03T23:53:18.160Z,99.90
2018-05-03T23:55:46.504Z,99.90
2018-05-03T23:58:14.062Z,99.90
